map of KGVQ home
KGVQ - Airport
Location
City:  Batavia, New York, United States
Name:Genesee County Airport
ICAO:KGVQ
FAA LID:GVQ

Details
Type:Airport (Airfield)
Use:Public/Civil
Latitude:4301'54"N (43.031750)
Longitude:7810'11"W (-78.169666)
Datum:WGS 1984
Elevation:913 ft (278 m)
Variation:10.97W (WMM2015v2 magnetic declination)
0.04 annual change
Runways:1
Longest:5499 × 100 ft (1676 × 30.5 m), paved

Time
Time Zone:UTC-5 (DST-4)
Local Time:

Weather
METAR:KGVQ 041356Z AUTO 22005KT 10SM FEW044 SCT075 11/04 A2996 RMK AO2 SLP176 T01110039

Related Locations
Nearby:
Farthest:YAUG: 11501 mi / 18510 km
Augusta [Augusta Airport], WA, AU

Find:

   beyond  
but within

Other Information
Maps:
NOTAMs:
Links:
Sources:

  
  • flag of United States
  • flag of New York
  

Sectional Chart

Flight Planning
at skyvector.com

Satellite Image

Google Maps Satellite view

 

Copyright © 2004-2019 Karl L. Swartz. All rights reserved.
The Great Circle Mapper name and logo are trademarks of the Great Circle Mapper.
All other trademarks mentioned herein belong to their respective owners.
Please see credits for attibutions and further copyright information.

  Follow gcmap on Facebook Follow gcmap on Twitter GCmap on LinkedIn

hCard Microformat

Geo Microformat